Time;durP1;ratioP1;P1;durP2;ratioP2;P2;SDS_P1;SDS_P2;PMS_P1;PMS_P2;Temp;Humidity;BMP_temperature;BMP_pressure;BME280_temperature;BME280_humidity;BME280_pressure;Samples;Min_cycle;Max_cycle;Signal;HPM_P1;HPM_P2
2020/12/02 00:01:28;;;;;;;;;;;;;;;20.02;34.61;101494.34;5137125;27;779;-62
2020/12/02 00:03:55;;;;;;;;;;;;;;;19.67;35.32;101505.13;5136390;27;1913;-62
2020/12/02 00:06:20;;;;;;;;;;;;;;;20.36;34.08;101502.81;5135849;27;833;-62
2020/12/02 00:08:47;;;;;;;;;;;;;;;20.36;33.92;101505.56;5138987;27;846;-62
2020/12/02 00:11:12;;;;;;;;;;;;;;;20.06;34.47;101506.47;5117938;27;1069;-63
2020/12/02 00:13:40;;;;;;;;;;;;;;;19.99;34.72;101496.56;5118711;28;826;-62
2020/12/02 00:16:06;;;;;;;;;;;;;;;19.97;34.92;101497.94;5119993;28;771;-62
2020/12/02 00:18:32;;;;;;;;;;;;;;;20.65;33.54;101491.06;5119345;27;968;-62
2020/12/02 00:20:57;;;;;;;;;;;;;;;20.14;34.69;101498.44;5118727;28;814;-62
2020/12/02 00:23:23;;;;;;;;;;;;;;;20.16;34.64;101499.00;5135843;27;1921;-62
2020/12/02 00:25:48;;;;;;;;;;;;;;;19.53;35.70;101498.50;5129289;27;917;-62
2020/12/02 00:28:14;;;;;;;;;;;;;;;20.27;34.22;101501.72;5140278;27;815;-62
2020/12/02 00:30:40;;;;;;;;;;;;;;;20.55;33.52;101502.16;5140217;27;834;-62
2020/12/02 00:33:19;;;;;;;;;;;;;;;19.97;34.67;101509.81;5138439;27;827;-62
2020/12/02 00:35:44;;;;;;;;;;;;;;;19.72;35.24;101505.09;5139214;27;1209;-62
2020/12/02 00:38:10;;;;;;;;;;;;;;;19.82;35.11;101505.16;5139954;27;751;-63
2020/12/02 00:40:36;;;;;;;;;;;;;;;20.45;33.84;101514.91;5129966;27;973;-62
2020/12/02 00:43:02;;;;;;;;;;;;;;;20.00;34.62;101502.91;5119148;28;1192;-62
2020/12/02 00:45:27;;;;;;;;;;;;;;;19.96;34.72;101508.16;5118323;27;1906;-62
2020/12/02 00:47:53;;;;;;;;;;;;;;;19.54;35.41;101500.97;5117539;28;1257;-62
2020/12/02 00:50:20;;;;;;;;;;;;;;;20.12;34.56;101503.44;5119649;28;787;-62
2020/12/02 00:53:05;;;;;;;;;;;;;;;20.72;33.65;101502.69;5117843;28;1306;-62
2020/12/02 00:55:31;;;;;;;;;;;;;;;20.26;34.12;101505.59;5104635;28;1101;-61
2020/12/02 00:57:57;;;;;;;;;;;;;;;19.94;34.81;101502.09;5101008;28;1188;-62
2020/12/02 01:00:23;;;;;;;;;;;;;;;19.65;35.40;101502.63;5117711;28;779;-61
2020/12/02 01:02:53;;;;;;;;;;;;;;;20.12;34.50;101510.91;5117047;28;893;-62
2020/12/02 01:05:19;;;;;;;;;;;;;;;20.56;33.68;101501.88;5117784;28;1901;-62
2020/12/02 01:07:44;;;;;;;;;;;;;;;20.05;34.73;101508.41;5119107;28;807;-62
2020/12/02 01:10:10;;;;;;;;;;;;;;;19.98;34.69;101499.59;5121586;27;997;-61
2020/12/02 01:12:36;;;;;;;;;;;;;;;19.97;35.04;101492.41;5139284;27;801;-61
2020/12/02 01:15:03;;;;;;;;;;;;;;;20.51;33.69;101499.97;5138282;27;771;-62
2020/12/02 01:17:28;;;;;;;;;;;;;;;20.15;34.43;101504.81;5137323;27;895;-62
2020/12/02 01:19:54;;;;;;;;;;;;;;;20.02;34.62;101500.69;5137880;27;807;-62
2020/12/02 01:22:22;;;;;;;;;;;;;;;19.78;35.31;101498.50;5137663;27;700;-63
2020/12/02 01:24:52;;;;;;;;;;;;;;;19.60;35.49;101507.31;5138427;27;1909;-63
2020/12/02 01:27:20;;;;;;;;;;;;;;;20.51;34.00;101505.50;5138500;27;787;-63
2020/12/02 01:29:46;;;;;;;;;;;;;;;20.18;34.43;101507.81;5137750;27;787;-62
2020/12/02 01:32:12;;;;;;;;;;;;;;;20.14;34.32;101503.97;5137304;27;1279;-63
2020/12/02 01:34:37;;;;;;;;;;;;;;;19.62;35.48;101508.69;5138874;27;1118;-63
2020/12/02 01:37:06;;;;;;;;;;;;;;;20.35;33.97;101501.16;5138739;27;755;-63
2020/12/02 01:39:32;;;;;;;;;;;;;;;20.55;33.49;101502.16;5138503;27;735;-63
2020/12/02 01:41:57;;;;;;;;;;;;;;;20.02;34.77;101502.63;5116810;27;1017;-62
2020/12/02 01:44:23;;;;;;;;;;;;;;;19.88;34.69;101496.84;5116648;28;1910;-62
2020/12/02 01:47:07;;;;;;;;;;;;;;;19.45;35.89;101497.94;5116629;28;780;-62
2020/12/02 01:49:55;;;;;;;;;;;;;;;20.41;34.01;101494.50;5118098;28;775;-62
2020/12/02 01:52:47;;;;;;;;;;;;;;;20.11;34.52;101493.47;5116748;28;966;-62
2020/12/02 01:55:13;;;;;;;;;;;;;;;20.01;34.55;101496.28;5115183;27;1008;-62
2020/12/02 01:57:39;;;;;;;;;;;;;;;19.52;35.43;101496.84;5099335;28;964;-62
2020/12/02 02:00:04;;;;;;;;;;;;;;;20.17;34.34;101489.63;5116399;28;860;-62
2020/12/02 02:02:52;;;;;;;;;;;;;;;20.40;33.74;101484.56;5117393;28;620;-62
2020/12/02 02:05:28;;;;;;;;;;;;;;;20.03;34.76;101488.53;5117637;28;1909;-62
2020/12/02 02:07:53;;;;;;;;;;;;;;;19.86;35.05;101485.28;5116321;28;796;-62
2020/12/02 02:10:31;;;;;;;;;;;;;;;19.70;35.36;101487.16;5121478;27;962;-62
2020/12/02 02:13:05;;;;;;;;;;;;;;;20.55;33.67;101488.34;5138156;27;790;-62
2020/12/02 02:15:34;;;;;;;;;;;;;;;19.95;34.75;101489.09;5138278;27;750;-62
2020/12/02 02:18:01;;;;;;;;;;;;;;;20.06;34.54;101479.69;5136319;27;788;-62
2020/12/02 02:20:28;;;;;;;;;;;;;;;19.65;35.14;101480.56;5136911;27;850;-62
2020/12/02 02:22:54;;;;;;;;;;;;;;;20.22;34.22;101482.44;5136678;27;886;-63
2020/12/02 02:25:19;;;;;;;;;;;;;;;20.59;33.56;101479.22;5136018;27;1894;-62
2020/12/02 02:27:45;;;;;;;;;;;;;;;20.14;34.43;101470.81;5136473;27;878;-62
2020/12/02 02:30:10;;;;;;;;;;;;;;;19.96;34.75;101474.19;5135625;27;867;-61
2020/12/02 02:32:36;;;;;;;;;;;;;;;19.70;35.48;101465.94;5137532;27;802;-63
2020/12/02 02:35:01;;;;;;;;;;;;;;;20.58;33.86;101455.47;5136261;27;1202;-63
2020/12/02 02:37:27;;;;;;;;;;;;;;;20.35;34.08;101468.81;5137674;27;806;-62
2020/12/02 02:39:53;;;;;;;;;;;;;;;20.21;34.38;101458.69;5135083;27;961;-62
2020/12/02 02:42:27;;;;;;;;;;;;;;;19.56;35.61;101456.56;5117050;28;1051;-62
2020/12/02 02:44:53;;;;;;;;;;;;;;;19.97;34.93;101459.28;5116995;28;1913;-62
2020/12/02 02:47:19;;;;;;;;;;;;;;;20.65;33.33;101467.03;5115307;28;854;-62
2020/12/02 02:49:44;;;;;;;;;;;;;;;20.10;34.51;101468.91;5115667;28;785;-62
2020/12/02 02:52:10;;;;;;;;;;;;;;;19.91;34.74;101466.75;5116749;28;819;-63
2020/12/02 02:54:35;;;;;;;;;;;;;;;19.37;35.78;101459.88;5115212;28;875;-63
2020/12/02 02:57:01;;;;;;;;;;;;;;;20.09;34.33;101468.09;5135857;27;958;-63
2020/12/02 02:59:26;;;;;;;;;;;;;;;20.61;33.39;101478.94;5137413;27;949;-62
2020/12/02 03:01:52;;;;;;;;;;;;;;;20.11;34.26;101467.81;5137204;28;850;-63
2020/12/02 03:04:17;;;;;;;;;;;;;;;19.91;34.63;101466.75;5119130;28;1917;-63
2020/12/02 03:06:42;;;;;;;;;;;;;;;19.63;35.28;101466.22;5137661;28;786;-63
2020/12/02 03:09:09;;;;;;;;;;;;;;;20.28;34.11;101470.25;5137208;27;830;-63
2020/12/02 03:11:35;;;;;;;;;;;;;;;20.63;33.24;101477.53;5135786;28;965;-62
2020/12/02 03:14:00;;;;;;;;;;;;;;;20.25;34.06;101465.28;5136239;28;755;-62
2020/12/02 03:16:26;;;;;;;;;;;;;;;19.99;34.60;101466.19;5136270;28;775;-62
2020/12/02 03:18:52;;;;;;;;;;;;;;;19.98;34.89;101464.53;5136094;28;767;-63
2020/12/02 03:21:18;;;;;;;;;;;;;;;20.64;33.54;101468.13;5136081;28;739;-62
2020/12/02 03:23:43;;;;;;;;;;;;;;;21.17;32.63;101459.25;5137234;27;1917;-62
2020/12/02 03:26:09;;;;;;;;;;;;;;;20.91;32.82;101466.91;5124061;27;928;-62
2020/12/02 03:28:35;;;;;;;;;;;;;;;20.49;33.57;101462.69;5116937;28;791;-62
2020/12/02 03:31:01;;;;;;;;;;;;;;;20.15;34.45;101471.66;5116378;28;794;-63
2020/12/02 03:33:26;;;;;;;;;;;;;;;19.45;35.52;101462.09;5115308;28;857;-64
2020/12/02 03:35:52;;;;;;;;;;;;;;;20.24;34.16;101458.91;5128879;28;1189;-62
2020/12/02 03:38:17;;;;;;;;;;;;;;;20.66;33.57;101476.16;5136898;27;798;-62
2020/12/02 03:40:43;;;;;;;;;;;;;;;20.06;34.57;101479.69;5125535;27;866;-62
2020/12/02 03:43:08;;;;;;;;;;;;;;;19.82;34.87;101480.31;5120323;28;1161;-62
2020/12/02 03:45:35;;;;;;;;;;;;;;;19.85;35.16;101472.56;5120204;28;1975;-62
2020/12/02 03:48:01;;;;;;;;;;;;;;;20.65;33.40;101478.09;5119088;28;1284;-62
2020/12/02 03:50:26;;;;;;;;;;;;;;;20.37;34.03;101478.75;5120524;28;806;-62
2020/12/02 03:52:52;;;;;;;;;;;;;;;20.21;34.30;101484.34;5120280;28;810;-63
2020/12/02 03:55:17;;;;;;;;;;;;;;;19.87;35.07;101492.44;5123923;27;1004;-62
2020/12/02 03:57:42;;;;;;;;;;;;;;;19.86;35.03;101486.09;5141237;27;775;-63
2020/12/02 04:00:08;;;;;;;;;;;;;;;20.68;33.33;101485.84;5140753;27;795;-63
2020/12/02 04:02:34;;;;;;;;;;;;;;;20.20;34.02;101485.44;5139451;27;771;-62
2020/12/02 04:04:59;;;;;;;;;;;;;;;20.15;34.30;101482.72;5122275;27;1910;-62
2020/12/02 04:07:25;;;;;;;;;;;;;;;19.85;34.73;101489.13;5140195;27;1032;-62
2020/12/02 04:09:50;;;;;;;;;;;;;;;19.86;34.78;101490.78;5139175;27;984;-63
2020/12/02 04:12:15;;;;;;;;;;;;;;;20.64;33.25;101489.44;5120023;28;794;-63
2020/12/02 04:14:41;;;;;;;;;;;;;;;20.31;33.83;101502.81;5118289;28;787;-63
2020/12/02 04:17:06;;;;;;;;;;;;;;;20.10;34.54;101496.53;5120239;28;814;-62
2020/12/02 04:19:32;;;;;;;;;;;;;;;19.88;34.71;101486.66;5120004;28;790;-62
2020/12/02 04:21:57;;;;;;;;;;;;;;;19.79;35.05;101494.66;5119345;28;747;-62
2020/12/02 04:24:23;;;;;;;;;;;;;;;20.52;33.66;101498.03;5119677;28;1984;-62
2020/12/02 04:26:48;;;;;;;;;;;;;;;20.10;34.49;101491.00;5119423;27;922;-59
2020/12/02 04:29:14;;;;;;;;;;;;;;;20.05;34.62;101491.84;5119575;28;743;-60
2020/12/02 04:31:39;;;;;;;;;;;;;;;19.56;35.12;101503.47;5119238;28;795;-62
2020/12/02 04:34:05;;;;;;;;;;;;;;;20.07;34.53;101497.09;5119925;28;806;-59
2020/12/02 04:36:30;;;;;;;;;;;;;;;20.65;33.17;101502.97;5136920;27;1151;-60
2020/12/02 04:38:56;;;;;;;;;;;;;;;20.12;34.15;101508.94;5140382;27;806;-60
2020/12/02 04:41:21;;;;;;;;;;;;;;;19.94;34.46;101507.59;5125227;27;957;-58
2020/12/02 04:43:47;;;;;;;;;;;;;;;19.49;35.67;101512.84;5119027;28;1975;-61
2020/12/02 04:46:17;;;;;;;;;;;;;;;19.73;35.07;101514.22;5117538;28;780;-61
2020/12/02 04:48:44;;;;;;;;;;;;;;;20.51;33.88;101508.28;5119254;28;835;-59
2020/12/02 04:51:13;;;;;;;;;;;;;;;20.13;34.26;101516.13;5117564;28;909;-60
2020/12/02 04:53:39;;;;;;;;;;;;;;;20.08;34.36;101516.13;5117361;28;819;-59
2020/12/02 04:56:04;;;;;;;;;;;;;;;19.89;34.77;101517.81;5130116;27;1005;-60
2020/12/02 04:58:31;;;;;;;;;;;;;;;20.57;33.66;101513.78;5139598;27;780;-61
2020/12/02 05:01:17;;;;;;;;;;;;;;;20.34;34.01;101514.13;5139333;27;813;-59
2020/12/02 05:03:54;;;;;;;;;;;;;;;20.11;34.44;101523.84;5128371;27;2013;-60
2020/12/02 05:06:29;;;;;;;;;;;;;;;19.59;35.20;101522.25;5147660;27;1338;-61
2020/12/02 05:09:10;;;;;;;;;;;;;;;19.86;34.82;101526.66;5144954;27;822;-62
2020/12/02 05:11:36;;;;;;;;;;;;;;;20.46;33.72;101513.00;5132844;27;990;-60
2020/12/02 05:14:02;;;;;;;;;;;;;;;20.08;34.53;101518.91;5139068;27;766;-61
2020/12/02 05:16:27;;;;;;;;;;;;;;;19.88;34.65;101516.16;5139366;27;549;-59
2020/12/02 05:19:00;;;;;;;;;;;;;;;19.81;34.80;101522.81;5137584;27;822;-63
2020/12/02 05:21:28;;;;;;;;;;;;;;;20.64;33.20;101528.13;5138854;27;810;-60
2020/12/02 05:24:04;;;;;;;;;;;;;;;20.18;34.23;101527.16;5154262;27;1982;-61
2020/12/02 05:26:34;;;;;;;;;;;;;;;20.14;34.34;101534.34;5121629;27;981;-60
2020/12/02 05:29:00;;;;;;;;;;;;;;;19.69;35.02;101535.22;5118498;28;842;-62
2020/12/02 05:31:27;;;;;;;;;;;;;;;19.80;34.88;101534.94;5118238;28;819;-64
2020/12/02 05:33:52;;;;;;;;;;;;;;;20.60;33.34;101544.41;5117460;28;519;-61
2020/12/02 05:36:19;;;;;;;;;;;;;;;20.09;34.10;101545.41;5132552;27;1230;-63
2020/12/02 05:39:04;;;;;;;;;;;;;;;20.02;34.31;101541.25;5137577;27;770;-64
2020/12/02 05:41:30;;;;;;;;;;;;;;;19.63;35.14;101549.00;5122482;27;1140;-62
2020/12/02 05:44:14;;;;;;;;;;;;;;;20.43;33.54;101557.75;5116563;28;1901;-59
2020/12/02 05:46:44;;;;;;;;;;;;;;;20.28;33.66;101553.09;5117128;28;779;-57
2020/12/02 05:49:10;;;;;;;;;;;;;;;20.03;34.36;101552.03;5116640;28;822;-57
2020/12/02 05:51:36;;;;;;;;;;;;;;;19.81;34.68;101549.56;5117664;28;751;-60
2020/12/02 05:54:06;;;;;;;;;;;;;;;20.44;33.66;101556.63;5117100;28;791;-58
2020/12/02 05:56:32;;;;;;;;;;;;;;;20.62;33.07;101553.28;5132656;27;1305;-61
2020/12/02 05:58:58;;;;;;;;;;;;;;;20.15;34.19;101548.97;5136339;27;818;-59
2020/12/02 06:01:23;;;;;;;;;;;;;;;20.12;34.01;101544.03;5138305;27;774;-59
2020/12/02 06:03:53;;;;;;;;;;;;;;;19.58;35.28;101561.97;5138688;27;1989;-59
2020/12/02 06:06:18;;;;;;;;;;;;;;;20.40;33.93;101556.38;5137087;27;819;-60
2020/12/02 06:08:46;;;;;;;;;;;;;;;20.48;33.57;101558.56;5138287;27;742;-61
2020/12/02 06:11:17;;;;;;;;;;;;;;;19.95;34.33;101560.88;5136856;27;954;-59
2020/12/02 06:13:43;;;;;;;;;;;;;;;19.78;34.59;101553.69;5137690;27;814;-59
2020/12/02 06:16:29;;;;;;;;;;;;;;;19.39;35.32;101558.88;5138181;27;845;-61
2020/12/02 06:18:54;;;;;;;;;;;;;;;20.26;33.69;101561.66;5138200;27;826;-60
2020/12/02 06:21:27;;;;;;;;;;;;;;;20.51;33.14;101559.94;5135685;27;867;-59
2020/12/02 06:23:55;;;;;;;;;;;;;;;20.07;34.22;101564.16;5137059;27;1886;-62
2020/12/02 06:26:36;;;;;;;;;;;;;;;19.82;34.65;101568.63;5123460;27;917;-59
2020/12/02 06:29:03;;;;;;;;;;;;;;;20.04;34.30;101573.00;5116879;28;759;-60
2020/12/02 06:31:29;;;;;;;;;;;;;;;20.67;33.05;101577.28;5117393;28;561;-60
2020/12/02 06:33:54;;;;;;;;;;;;;;;20.19;33.90;101580.47;5117431;28;822;-59
2020/12/02 06:36:26;;;;;;;;;;;;;;;19.98;34.19;101582.41;5132776;27;1142;-59
2020/12/02 06:38:52;;;;;;;;;;;;;;;19.55;35.05;101573.53;5137892;27;795;-58
2020/12/02 06:41:21;;;;;;;;;;;;;;;20.18;34.21;101581.56;5123301;27;948;-61
2020/12/02 06:44:06;;;;;;;;;;;;;;;20.60;33.03;101585.88;5116622;28;1995;-61
2020/12/02 06:46:51;;;;;;;;;;;;;;;20.12;34.07;101583.50;5109891;28;1319;-59
2020/12/02 06:49:16;;;;;;;;;;;;;;;19.78;34.72;101584.03;5116966;28;807;-59
2020/12/02 06:52:00;;;;;;;;;;;;;;;19.74;34.95;101582.94;5116738;28;815;-60
2020/12/02 06:54:30;;;;;;;;;;;;;;;20.42;33.53;101576.25;5117137;28;858;-59
2020/12/02 06:56:57;;;;;;;;;;;;;;;20.10;33.99;101582.94;5116657;27;1000;-63
2020/12/02 06:59:22;;;;;;;;;;;;;;;20.07;34.19;101591.78;5115636;28;791;-59
2020/12/02 07:01:47;;;;;;;;;;;;;;;19.74;34.70;101588.47;5116914;28;744;-60
2020/12/02 07:04:15;;;;;;;;;;;;;;;20.31;33.67;101581.00;5115627;28;1981;-60
2020/12/02 07:06:40;;;;;;;;;;;;;;;20.73;33.07;101578.94;5115472;28;747;-58
2020/12/02 07:09:14;;;;;;;;;;;;;;;20.19;33.90;101580.47;5117033;28;775;-59
2020/12/02 07:11:40;;;;;;;;;;;;;;;19.94;34.26;101581.31;5116484;27;953;-59
2020/12/02 07:14:29;;;;;;;;;;;;;;;19.80;34.55;101587.38;5115310;28;989;-59
2020/12/02 07:16:58;;;;;;;;;;;;;;;20.68;33.32;101596.38;5112439;28;1338;-59
2020/12/02 07:19:25;;;;;;;;;;;;;;;20.04;34.16;101591.53;5121043;28;747;-61
2020/12/02 07:21:51;;;;;;;;;;;;;;;19.98;34.47;101585.19;5120613;28;791;-58
2020/12/02 07:24:17;;;;;;;;;;;;;;;19.60;34.93;101584.56;5120819;28;1917;-59
2020/12/02 07:26:43;;;;;;;;;;;;;;;20.16;33.91;101589.28;5120634;27;905;-58
2020/12/02 07:29:16;;;;;;;;;;;;;;;20.75;33.10;101590.56;5121011;28;834;-57
2020/12/02 07:31:41;;;;;;;;;;;;;;;20.32;33.64;101581.81;5120618;28;814;-59
2020/12/02 07:34:10;;;;;;;;;;;;;;;19.91;34.28;101588.22;5119281;28;818;-59
2020/12/02 07:36:35;;;;;;;;;;;;;;;19.50;35.46;101582.63;5132382;27;1095;-59
2020/12/02 07:39:21;;;;;;;;;;;;;;;20.33;33.78;101587.06;5120593;28;801;-58
2020/12/02 07:41:50;;;;;;;;;;;;;;;20.28;33.79;101591.75;5120231;27;1058;-59
2020/12/02 07:44:15;;;;;;;;;;;;;;;20.22;33.95;101588.19;5120410;28;1996;-58
2020/12/02 07:46:41;;;;;;;;;;;;;;;19.88;34.34;101596.19;5120402;28;751;-60
2020/12/02 07:49:06;;;;;;;;;;;;;;;19.76;34.76;101591.75;5118895;28;779;-60
2020/12/02 07:51:36;;;;;;;;;;;;;;;20.52;33.46;101598.34;5118727;28;1463;-59
2020/12/02 07:54:13;;;;;;;;;;;;;;;20.15;33.99;101606.97;5120420;28;775;-59
2020/12/02 07:56:38;;;;;;;;;;;;;;;20.06;33.90;101603.91;5135307;27;965;-59
2020/12/02 07:59:08;;;;;;;;;;;;;;;19.60;34.71;101592.84;5139695;27;976;-59
2020/12/02 08:01:37;;;;;;;;;;;;;;;20.26;33.62;101599.47;5121877;27;1422;-59
2020/12/02 08:04:25;;;;;;;;;;;;;;;20.58;33.16;101595.53;5140468;27;1905;-58
2020/12/02 08:06:57;;;;;;;;;;;;;;;20.24;33.61;101596.19;5140546;27;770;-58
2020/12/02 08:09:22;;;;;;;;;;;;;;;20.01;34.02;101595.66;5140742;27;815;-57
2020/12/02 08:11:49;;;;;;;;;;;;;;;19.49;35.06;101603.88;5121636;27;944;-58
2020/12/02 08:14:18;;;;;;;;;;;;;;;20.42;33.56;101605.81;5118286;28;906;-59
2020/12/02 08:16:43;;;;;;;;;;;;;;;20.40;33.28;101610.78;5118456;28;887;-59
2020/12/02 08:19:11;;;;;;;;;;;;;;;20.05;34.04;101607.81;5118691;28;831;-58
2020/12/02 08:21:37;;;;;;;;;;;;;;;19.69;34.51;101599.47;5119944;28;795;-58
2020/12/02 08:24:14;;;;;;;;;;;;;;;19.69;34.70;101601.44;5101979;28;1984;-58
2020/12/02 08:26:41;;;;;;;;;;;;;;;20.43;33.58;101600.00;5119094;27;910;-58
2020/12/02 08:29:07;;;;;;;;;;;;;;;20.15;33.86;101605.03;5118893;28;779;-59
2020/12/02 08:31:32;;;;;;;;;;;;;;;20.00;33.96;101607.81;5119711;28;815;-59
2020/12/02 08:34:08;;;;;;;;;;;;;;;19.69;34.49;101602.25;5117908;28;858;-60
2020/12/02 08:36:34;;;;;;;;;;;;;;;20.00;34.17;101607.81;5137506;27;1091;-59
2020/12/02 08:38:59;;;;;;;;;;;;;;;20.68;33.00;101603.84;5140191;27;770;-59
2020/12/02 08:41:25;;;;;;;;;;;;;;;20.13;33.72;101601.72;5122792;27;986;-59
2020/12/02 08:43:50;;;;;;;;;;;;;;;20.09;33.89;101597.88;5119264;28;1984;-58
2020/12/02 08:46:20;;;;;;;;;;;;;;;19.55;34.63;101596.44;5118209;28;1289;-58
2020/12/02 08:48:47;;;;;;;;;;;;;;;20.37;33.29;101605.81;5118820;28;851;-59
2020/12/02 08:51:14;;;;;;;;;;;;;;;20.47;33.00;101597.53;5119279;28;494;-59
2020/12/02 08:53:40;;;;;;;;;;;;;;;20.15;33.58;101593.97;5119292;28;783;-61
2020/12/02 08:56:08;;;;;;;;;;;;;;;19.86;34.17;101590.16;5118463;27;1080;-60
2020/12/02 08:58:33;;;;;;;;;;;;;;;19.76;34.47;101590.94;5117888;28;1389;-60
2020/12/02 09:00:59;;;;;;;;;;;;;;;20.51;33.05;101596.69;5119062;28;763;-61
2020/12/02 09:03:24;;;;;;;;;;;;;;;21.07;32.19;101597.63;5118536;28;1910;-59
2020/12/02 09:05:50;;;;;;;;;;;;;;;20.91;32.46;101598.78;5119022;28;775;-60
2020/12/02 09:08:16;;;;;;;;;;;;;;;20.50;33.23;101597.78;5119230;28;770;-59
2020/12/02 09:10:41;;;;;;;;;;;;;;;20.09;33.68;101592.34;5118048;27;965;-61
2020/12/02 09:13:07;;;;;;;;;;;;;;;19.48;34.81;101582.91;5119270;27;818;-59
2020/12/02 09:15:32;;;;;;;;;;;;;;;20.19;33.62;101577.69;5118666;28;771;-59
2020/12/02 09:17:58;;;;;;;;;;;;;;;20.69;32.90;101580.63;5118918;28;795;-60
2020/12/02 09:20:24;;;;;;;;;;;;;;;20.26;33.56;101591.19;5100383;28;872;-59
2020/12/02 09:22:49;;;;;;;;;;;;;;;20.03;33.78;101590.69;5116956;28;843;-59
2020/12/02 09:25:15;;;;;;;;;;;;;;;19.57;34.71;101569.41;5118307;27;1921;-59
2020/12/02 09:27:40;;;;;;;;;;;;;;;20.35;33.27;101570.19;5118330;28;758;-60
2020/12/02 09:30:06;;;;;;;;;;;;;;;20.63;32.98;101571.47;5118353;28;886;-59
2020/12/02 09:32:31;;;;;;;;;;;;;;;20.26;33.34;101575.47;5118831;28;822;-60
2020/12/02 09:34:57;;;;;;;;;;;;;;;20.04;33.85;101566.69;5122410;27;1181;-60
2020/12/02 09:37:22;;;;;;;;;;;;;;;19.85;34.24;101577.44;5138858;27;858;-59
2020/12/02 09:39:48;;;;;;;;;;;;;;;20.51;33.27;101569.06;5137097;27;968;-59
2020/12/02 09:42:18;;;;;;;;;;;;;;;20.28;33.40;101564.13;5116403;28;1032;-59
2020/12/02 09:44:56;;;;;;;;;;;;;;;20.07;33.65;101569.69;5116938;28;1909;-59
2020/12/02 09:47:21;;;;;;;;;;;;;;;19.76;34.46;101568.88;5118296;28;891;-59
2020/12/02 09:49:47;;;;;;;;;;;;;;;20.03;34.10;101568.59;5117659;28;735;-58
2020/12/02 09:52:12;;;;;;;;;;;;;;;20.71;32.63;101575.66;5118064;28;810;-58
2020/12/02 09:54:42;;;;;;;;;;;;;;;20.25;33.28;101575.75;5117915;27;1004;-59
2020/12/02 09:57:14;;;;;;;;;;;;;;;20.07;33.74;101568.88;5138661;27;1497;-59
2020/12/02 09:59:40;;;;;;;;;;;;;;;19.62;34.55;101563.88;5157740;27;814;-58
2020/12/02 10:02:14;;;;;;;;;;;;;;;20.05;33.78;101571.91;5159249;27;861;-59
2020/12/02 10:04:48;;;;;;;;;;;;;;;20.73;32.53;101565.13;5157323;27;1980;-58
2020/12/02 10:07:25;;;;;;;;;;;;;;;20.12;33.50;101566.94;5158059;27;858;-58
2020/12/02 10:09:51;;;;;;;;;;;;;;;20.08;33.57;101565.84;5153102;27;1003;-59
2020/12/02 10:12:27;;;;;;;;;;;;;;;19.70;34.31;101559.75;5117613;28;789;-58
2020/12/02 10:15:03;;;;;;;;;;;;;;;20.42;33.34;101559.69;5099441;28;999;-58
2020/12/02 10:17:28;;;;;;;;;;;;;;;20.52;33.01;101564.34;5115978;28;740;-58
2020/12/02 10:20:04;;;;;;;;;;;;;;;20.14;33.78;101555.59;5116813;28;744;-58
2020/12/02 10:22:42;;;;;;;;;;;;;;;19.67;34.53;101561.13;5116422;28;755;-60
2020/12/02 10:25:26;;;;;;;;;;;;;;;20.14;33.51;101556.41;5119428;27;1886;-59
2020/12/02 10:28:07;;;;;;;;;;;;;;;20.58;32.96;101567.91;5137179;27;750;-59
2020/12/02 10:30:32;;;;;;;;;;;;;;;20.09;33.68;101570.25;5137901;27;814;-59
2020/12/02 10:33:07;;;;;;;;;;;;;;;19.89;34.35;101564.75;5136346;27;802;-59
2020/12/02 10:35:33;;;;;;;;;;;;;;;19.92;34.30;101564.19;5138016;27;1129;-62
2020/12/02 10:38:00;;;;;;;;;;;;;;;20.46;33.20;101571.00;5137646;27;853;-57
2020/12/02 10:40:26;;;;;;;;;;;;;;;20.37;33.07;101561.63;5128907;27;954;-56
2020/12/02 10:43:02;;;;;;;;;;;;;;;20.22;33.42;101568.03;5115983;28;1015;-58
2020/12/02 10:45:27;;;;;;;;;;;;;;;19.75;34.36;101570.78;5116979;28;1972;-59
2020/12/02 10:48:02;;;;;;;;;;;;;;;20.55;33.05;101568.47;5116905;28;830;-59
2020/12/02 10:50:29;;;;;;;;;;;;;;;20.62;33.14;101572.63;5115789;28;799;-61
2020/12/02 10:52:55;;;;;;;;;;;;;;;20.09;33.92;101566.66;5116642;28;770;-58
2020/12/02 10:55:21;;;;;;;;;;;;;;;19.78;34.66;101573.00;5121249;27;950;-61
2020/12/02 10:57:54;;;;;;;;;;;;;;;19.28;35.62;101569.91;5136496;27;779;-61
2020/12/02 11:00:19;;;;;;;;;;;;;;;20.10;34.20;101569.13;5135950;28;971;-63
2020/12/02 11:02:45;;;;;;;;;;;;;;;20.74;33.11;101571.50;5135871;28;806;-58
2020/12/02 11:05:10;;;;;;;;;;;;;;;20.21;33.77;101558.91;5137435;28;1972;-62
2020/12/02 11:07:39;;;;;;;;;;;;;;;20.04;34.24;101570.25;5137483;27;806;-60
2020/12/02 11:10:24;;;;;;;;;;;;;;;19.54;35.16;101561.66;5133109;27;945;-59
2020/12/02 11:13:10;;;;;;;;;;;;;;;20.25;33.68;101559.19;5116369;28;1101;-60
2020/12/02 11:15:56;;;;;;;;;;;;;;;20.37;33.39;101562.47;5122715;27;1549;-61
2020/12/02 11:18:35;;;;;;;;;;;;;;;19.99;34.11;101561.97;5142819;27;1087;-60
2020/12/02 11:21:07;;;;;;;;;;;;;;;19.65;34.79;101554.22;5135989;28;774;-60
2020/12/02 11:23:51;;;;;;;;;;;;;;;20.17;33.82;101558.66;5137459;27;1917;-60
2020/12/02 11:26:25;;;;;;;;;;;;;;;20.59;33.06;101559.34;5137246;27;971;-64
2020/12/02 11:28:51;;;;;;;;;;;;;;;20.11;33.86;101554.22;5137403;27;783;-60
2020/12/02 11:31:29;;;;;;;;;;;;;;;19.95;34.24;101555.34;5117807;28;886;-63
2020/12/02 11:34:18;;;;;;;;;;;;;;;19.59;34.90;101552.59;5135653;28;859;-63
2020/12/02 11:36:59;;;;;;;;;;;;;;;20.54;33.10;101558.53;5136086;28;1190;-63
2020/12/02 11:39:36;;;;;;;;;;;;;;;20.16;33.77;101551.47;5136926;27;798;-63
2020/12/02 11:42:10;;;;;;;;;;;;;;;19.95;34.15;101550.66;5116617;27;933;-64
2020/12/02 11:44:42;;;;;;;;;;;;;;;19.52;35.14;101546.47;5115391;28;1906;-64
2020/12/02 11:47:17;;;;;;;;;;;;;;;20.27;33.71;101546.75;5116652;28;798;-61
2020/12/02 11:49:43;;;;;;;;;;;;;;;20.32;33.41;101549.47;5116461;28;786;-59
2020/12/02 11:52:15;;;;;;;;;;;;;;;20.21;33.72;101549.81;5115018;28;787;-60
2020/12/02 11:54:41;;;;;;;;;;;;;;;19.93;34.36;101543.78;5116042;27;956;-62
2020/12/02 11:57:06;;;;;;;;;;;;;;;19.86;34.42;101533.00;5116358;28;771;-63
2020/12/02 11:59:33;;;;;;;;;;;;;;;20.67;33.07;101549.66;5115350;28;1252;-60
2020/12/02 12:02:15;;;;;;;;;;;;;;;20.19;33.70;101541.81;5115959;28;774;-63
2020/12/02 12:04:57;;;;;;;;;;;;;;;20.10;33.76;101537.94;5118197;28;1974;-60
2020/12/02 12:07:41;;;;;;;;;;;;;;;19.66;34.55;101547.63;5119163;28;752;-61
2020/12/02 12:10:12;;;;;;;;;;;;;;;20.34;33.43;101552.81;5119322;27;945;-61
2020/12/02 12:12:38;;;;;;;;;;;;;;;20.20;33.72;101539.84;5118442;28;839;-60
2020/12/02 12:15:06;;;;;;;;;;;;;;;19.90;34.22;101544.31;5120085;28;778;-59
2020/12/02 12:17:34;;;;;;;;;;;;;;;19.76;34.42;101531.06;5118289;28;839;-59
2020/12/02 12:20:15;;;;;;;;;;;;;;;19.55;34.95;101535.75;5118817;28;807;-60
2020/12/02 12:23:19;;;;;;;;;;;;;;;20.44;33.23;101534.53;5119873;28;739;-59
2020/12/02 12:25:44;;;;;;;;;;;;;;;19.86;34.17;101529.44;5085768;28;1965;-60
2020/12/02 12:28:15;;;;;;;;;;;;;;;19.98;34.36;101528.03;5080479;28;895;-61
2020/12/02 12:30:41;;;;;;;;;;;;;;;19.54;34.92;101534.09;5107825;27;931;-61
2020/12/02 12:33:22;;;;;;;;;;;;;;;20.08;33.79;101529.94;5140141;27;775;-60
2020/12/02 12:35:57;;;;;;;;;;;;;;;20.34;33.27;101524.34;5139324;27;1126;-60
2020/12/02 12:38:36;;;;;;;;;;;;;;;20.06;33.78;101534.91;5138509;27;778;-58
2020/12/02 12:41:03;;;;;;;;;;;;;;;19.68;34.60;101534.34;5126695;27;954;-62
2020/12/02 12:43:41;;;;;;;;;;;;;;;20.01;34.19;101537.69;5118198;28;1098;-59
2020/12/02 12:46:08;;;;;;;;;;;;;;;20.64;32.93;101544.69;5117752;28;779;-61
2020/12/02 12:48:33;;;;;;;;;;;;;;;20.09;33.74;101539.88;5118237;28;782;-60
2020/12/02 12:50:58;;;;;;;;;;;;;;;20.08;33.97;101542.94;5119634;27;862;-61
2020/12/02 12:53:24;;;;;;;;;;;;;;;19.43;35.02;101543.44;5117594;28;827;-61
2020/12/02 12:55:51;;;;;;;;;;;;;;;20.07;34.22;101544.03;5118937;27;960;-58
2020/12/02 12:58:17;;;;;;;;;;;;;;;20.48;33.25;101547.53;5117702;28;867;-61
2020/12/02 13:00:46;;;;;;;;;;;;;;;19.97;33.94;101548.44;5118471;28;822;-61
2020/12/02 13:03:19;;;;;;;;;;;;;;;19.79;34.38;101549.00;5119047;28;743;-58
2020/12/02 13:05:53;;;;;;;;;;;;;;;19.93;34.22;101552.06;5118724;28;1976;-58